aviador You're here:

NWWW Decoded Metar

NOUMEA in NEW CALEDONIA
Report Time2017-09-24 01:00:00
UTC Time2017-09-24 01:25:58
Flight Rules vfr VFR
Wind190° at 12 kt
W.Decomp.*RWY 11: 4.5 kt HW 11.1 kt RCW
W.Rank190° ranks 6
Current wind is above 190° avg. (8.0)
Visibility9999 m
Phenomena:N/A
Clouds:N/A
Expected CloudBase > 5,200 ft AGL from Temp-Dew spread
CeilingNone
Temp28°C (ISA +13)
Dew Point15°C (45% RH)
Heat Index28.0°C
AAT25.3°C
QNH1017 hPa
Density Alt1,654 ft
Elevation52 ft
Report Wrong Elevation
Raw Report
METAR NWWW 240100Z AUTO 19012KT CAVOK 28/15 Q1017 NOSIG=####018000129####
SAAK41 KNKA 240116

Extra information for NWWW:More info

Metar Taf Metar & Taf Last 4 Metars F.Rules Stats Wind Profile Meteogram Temp Stats Airport Information Weather charts Add Link Nearby VenuesMetar ALERT Operation Metar Decoded Social comments